Time;durP1;ratioP1;P1;durP2;ratioP2;P2;SDS_P1;SDS_P2;PMS_P1;PMS_P2;Temp;Humidity;BMP_temperature;BMP_pressure;BME280_temperature;BME280_humidity;BME280_pressure;Samples;Min_cycle;Max_cycle;Signal;HPM_P1;HPM_P2
2021/09/25 00:02:24;;;;;;;7.10;4.82;;;;;;;;;;10426127;28;20459;-86
2021/09/25 00:07:25;;;;;;;7.05;4.85;;;;;;;;;;10422974;28;20119;-86
2021/09/25 00:12:26;;;;;;;6.00;4.65;;;;;;;;;;10422228;28;20053;-87
2021/09/25 00:17:27;;;;;;;5.90;4.47;;;;;;;;;;10422495;28;20384;-86
2021/09/25 00:22:28;;;;;;;5.97;4.43;;;;;;;;;;10423815;28;20026;-86
2021/09/25 00:27:29;;;;;;;6.03;4.45;;;;;;;;;;10436554;28;20113;-84
2021/09/25 00:32:30;;;;;;;6.00;4.65;;;;;;;;;;10488741;22;20041;-85
2021/09/25 00:37:31;;;;;;;4.70;4.20;;;;;;;;;;10485313;28;20029;-85
2021/09/25 00:42:32;;;;;;;4.70;4.20;;;;;;;;;;10477056;28;20079;-84
2021/09/25 00:47:34;;;;;;;5.88;4.30;;;;;;;;;;10443507;28;20052;-84
2021/09/25 00:52:35;;;;;;;4.63;3.83;;;;;;;;;;10443254;28;20038;-85
2021/09/25 00:57:37;;;;;;;4.65;3.70;;;;;;;;;;10443141;28;20026;-85
2021/09/25 01:02:38;;;;;;;5.95;4.10;;;;;;;;;;10443191;28;20018;-84
2021/09/25 01:07:38;;;;;;;4.85;3.60;;;;;;;;;;10439129;28;20037;-85
2021/09/25 01:12:40;;;;;;;4.57;3.80;;;;;;;;;;10443193;28;20037;-85
2021/09/25 01:17:41;;;;;;;4.32;3.58;;;;;;;;;;10461541;28;20018;-87
2021/09/25 01:22:42;;;;;;;5.25;3.63;;;;;;;;;;10448548;28;20045;-86
2021/09/25 01:27:43;;;;;;;4.85;3.90;;;;;;;;;;10437124;28;20030;-85
2021/09/25 01:32:45;;;;;;;5.15;4.13;;;;;;;;;;10437462;28;20042;-85
2021/09/25 01:37:47;;;;;;;5.45;4.10;;;;;;;;;;10437353;28;20029;-86
2021/09/25 01:42:48;;;;;;;4.60;3.55;;;;;;;;;;10440363;28;20540;-86
2021/09/25 01:47:49;;;;;;;4.65;3.92;;;;;;;;;;10459842;28;20035;-86
2021/09/25 01:52:50;;;;;;;5.38;3.70;;;;;;;;;;10443583;28;20376;-86
2021/09/25 01:57:51;;;;;;;5.68;4.20;;;;;;;;;;10445497;28;20031;-86
2021/09/25 02:02:52;;;;;;;4.53;3.78;;;;;;;;;;10441291;28;20030;-86
2021/09/25 02:07:54;;;;;;;4.97;3.78;;;;;;;;;;10443983;28;20029;-85
2021/09/25 02:12:54;;;;;;;6.35;3.90;;;;;;;;;;10443130;28;20021;-84
2021/09/25 02:17:55;;;;;;;5.45;3.90;;;;;;;;;;10444680;28;20029;-84
2021/09/25 02:22:56;;;;;;;4.18;3.53;;;;;;;;;;10442724;28;20042;-84
2021/09/25 02:27:57;;;;;;;5.90;4.97;;;;;;;;;;10445483;28;20076;-84
2021/09/25 02:32:58;;;;;;;5.75;4.32;;;;;;;;;;10464123;28;20013;-85
2021/09/25 02:37:59;;;;;;;5.82;4.38;;;;;;;;;;10453758;28;20022;-85
2021/09/25 02:43:00;;;;;;;4.40;3.55;;;;;;;;;;10447682;28;20028;-85
2021/09/25 02:48:02;;;;;;;4.82;3.55;;;;;;;;;;10448163;28;20036;-86
2021/09/25 02:53:03;;;;;;;4.07;3.55;;;;;;;;;;10445236;28;20449;-86
2021/09/25 02:58:04;;;;;;;4.28;3.53;;;;;;;;;;10444312;28;20052;-86
2021/09/25 03:03:04;;;;;;;5.35;4.45;;;;;;;;;;10443066;28;20030;-86
2021/09/25 03:08:06;;;;;;;5.32;3.83;;;;;;;;;;10443050;28;20037;-86
2021/09/25 03:13:07;;;;;;;4.50;3.53;;;;;;;;;;10442155;28;20406;-85
2021/09/25 03:18:08;;;;;;;4.85;3.90;;;;;;;;;;10442752;28;20021;-86
2021/09/25 03:23:10;;;;;;;4.35;3.75;;;;;;;;;;10447359;28;20056;-86
2021/09/25 03:28:12;;;;;;;4.55;3.33;;;;;;;;;;10440315;28;20038;-85
2021/09/25 03:33:13;;;;;;;6.57;4.03;;;;;;;;;;10439067;28;20041;-85
2021/09/25 03:38:21;;;;;;;5.45;4.18;;;;;;;;;;10437732;28;20033;-85
2021/09/25 03:43:22;;;;;;;6.05;4.15;;;;;;;;;;10436849;28;20429;-85
2021/09/25 03:48:23;;;;;;;4.60;3.83;;;;;;;;;;10435615;28;20057;-85
2021/09/25 03:53:24;;;;;;;4.43;3.55;;;;;;;;;;10432174;28;20030;-86
2021/09/25 03:58:25;;;;;;;3.75;3.33;;;;;;;;;;10435452;28;20030;-85
2021/09/25 04:03:26;;;;;;;3.97;3.35;;;;;;;;;;10434404;28;20047;-86
2021/09/25 04:08:28;;;;;;;4.80;4.10;;;;;;;;;;10436843;28;20028;-85
2021/09/25 04:13:29;;;;;;;6.55;4.40;;;;;;;;;;10434326;28;20072;-85
2021/09/25 04:18:29;;;;;;;4.38;3.20;;;;;;;;;;10434914;28;20033;-85
2021/09/25 04:23:30;;;;;;;5.22;3.92;;;;;;;;;;10435373;28;20056;-85
2021/09/25 04:28:31;;;;;;;6.18;3.78;;;;;;;;;;10435105;28;20021;-85
2021/09/25 04:33:32;;;;;;;6.22;4.00;;;;;;;;;;10435728;28;20129;-85
2021/09/25 04:38:33;;;;;;;6.10;4.63;;;;;;;;;;10435488;28;20021;-85
2021/09/25 04:43:34;;;;;;;7.78;4.30;;;;;;;;;;10433216;28;20079;-85
2021/09/25 04:48:35;;;;;;;5.18;3.90;;;;;;;;;;10433489;28;20494;-85
2021/09/25 04:53:36;;;;;;;5.53;4.13;;;;;;;;;;10436226;28;20021;-86
2021/09/25 04:58:38;;;;;;;8.77;5.05;;;;;;;;;;10435385;28;20036;-85
2021/09/25 05:03:39;;;;;;;8.35;4.10;;;;;;;;;;10436029;28;20083;-85
2021/09/25 05:08:40;;;;;;;7.75;5.70;;;;;;;;;;10435879;28;20030;-85
2021/09/25 05:13:41;;;;;;;6.13;4.05;;;;;;;;;;10438905;28;20084;-85
2021/09/25 05:18:42;;;;;;;5.07;3.88;;;;;;;;;;10436067;28;20071;-85
2021/09/25 05:23:43;;;;;;;5.15;4.07;;;;;;;;;;10448925;28;20052;-85
2021/09/25 05:28:44;;;;;;;4.68;3.70;;;;;;;;;;10458262;28;20060;-85
2021/09/25 05:33:44;;;;;;;5.05;4.00;;;;;;;;;;10438393;28;20037;-86
2021/09/25 05:38:45;;;;;;;5.65;4.07;;;;;;;;;;10437181;28;20036;-85
2021/09/25 05:43:50;;;;;;;4.40;3.03;;;;;;;;;;10450614;28;20077;-85
2021/09/25 05:48:52;;;;;;;7.32;4.97;;;;;;;;;;10432499;28;20034;-85
2021/09/25 05:53:54;;;;;;;4.45;3.40;;;;;;;;;;10408588;28;20053;-86
2021/09/25 05:58:55;;;;;;;4.90;3.70;;;;;;;;;;10420294;28;20087;-86
2021/09/25 06:03:56;;;;;;;7.28;5.15;;;;;;;;;;10418374;28;20117;-86
2021/09/25 06:08:57;;;;;;;5.18;3.97;;;;;;;;;;10417962;28;20124;-86
2021/09/25 06:14:01;;;;;;;6.28;4.22;;;;;;;;;;10418283;28;20017;-86
2021/09/25 06:19:05;;;;;;;7.25;5.57;;;;;;;;;;10418649;28;20029;-86
2021/09/25 06:24:08;;;;;;;5.05;3.55;;;;;;;;;;10417639;28;20067;-86
2021/09/25 06:29:09;;;;;;;7.75;5.18;;;;;;;;;;10417244;28;20055;-86
2021/09/25 06:34:12;;;;;;;8.38;5.60;;;;;;;;;;10423691;28;20112;-85
2021/09/25 06:39:32;;;;;;;8.45;5.80;;;;;;;;;;10424989;28;20037;-87
2021/09/25 06:44:33;;;;;;;8.45;6.40;;;;;;;;;;10401465;28;20380;-87
2021/09/25 06:49:35;;;;;;;8.82;6.22;;;;;;;;;;10429435;28;20034;-87
2021/09/25 06:54:39;;;;;;;7.50;5.28;;;;;;;;;;10427702;28;20035;-88
2021/09/25 06:59:40;;;;;;;6.05;3.78;;;;;;;;;;10432230;28;20021;-86
2021/09/25 07:04:41;;;;;;;6.25;4.63;;;;;;;;;;10428831;28;20022;-87
2021/09/25 07:09:42;;;;;;;4.00;3.15;;;;;;;;;;10437055;28;20041;-87
2021/09/25 07:15:15;;;;;;;6.10;4.18;;;;;;;;;;10432851;28;20030;-87
2021/09/25 07:20:36;;;;;;;5.35;3.55;;;;;;;;;;10432988;28;20104;-87
2021/09/25 07:25:46;;;;;;;4.72;3.20;;;;;;;;;;10433295;28;20431;-87
2021/09/25 07:31:09;;;;;;;4.47;3.20;;;;;;;;;;10418948;28;20025;-87
2021/09/25 07:42:13;;;;;;;5.38;3.42;;;;;;;;;;10435538;28;20049;-86
2021/09/25 07:47:16;;;;;;;5.57;4.10;;;;;;;;;;10436567;28;20025;-86
2021/09/25 07:52:30;;;;;;;4.22;2.83;;;;;;;;;;10432883;28;20032;-86
2021/09/25 07:57:49;;;;;;;4.65;3.40;;;;;;;;;;10434614;28;20108;-86
2021/09/25 08:02:52;;;;;;;5.60;3.50;;;;;;;;;;10430783;28;20025;-86
2021/09/25 08:07:53;;;;;;;5.05;3.40;;;;;;;;;;10444299;28;20022;-86
2021/09/25 08:12:58;;;;;;;4.78;3.38;;;;;;;;;;10449531;28;20033;-87
2021/09/25 08:18:00;;;;;;;3.83;3.03;;;;;;;;;;10455889;28;20030;-87
2021/09/25 08:23:31;;;;;;;5.38;3.30;;;;;;;;;;10443723;28;20399;-86
2021/09/25 08:28:32;;;;;;;5.28;3.47;;;;;;;;;;10434590;28;20094;-87
2021/09/25 08:39:31;;;;;;;6.60;4.20;;;;;;;;;;10409930;28;20029;-86
2021/09/25 08:44:33;;;;;;;5.65;4.22;;;;;;;;;;10433032;28;20018;-86
2021/09/25 08:49:39;;;;;;;9.25;7.53;;;;;;;;;;10434325;28;20166;-86
2021/09/25 08:54:40;;;;;;;6.43;4.90;;;;;;;;;;10431300;28;20022;-86
2021/09/25 09:00:15;;;;;;;6.65;3.90;;;;;;;;;;10430120;28;20112;-85
2021/09/25 09:05:29;;;;;;;6.10;4.85;;;;;;;;;;10447521;28;20034;-86
2021/09/25 09:11:04;;;;;;;7.32;4.50;;;;;;;;;;10428306;28;20029;-88
2021/09/25 09:16:25;;;;;;;6.07;4.32;;;;;;;;;;10413145;28;20036;-85
2021/09/25 09:21:30;;;;;;;4.88;3.92;;;;;;;;;;10432133;28;20029;-86
2021/09/25 09:26:34;;;;;;;6.45;3.95;;;;;;;;;;10431975;28;20018;-86
2021/09/25 09:31:35;;;;;;;5.10;3.47;;;;;;;;;;10430728;28;20105;-84
2021/09/25 09:36:36;;;;;;;4.43;3.47;;;;;;;;;;10462659;28;20045;-86
2021/09/25 09:41:56;;;;;;;5.70;3.78;;;;;;;;;;10430463;28;20116;-86
2021/09/25 09:47:01;;;;;;;5.43;3.63;;;;;;;;;;10427726;28;20026;-86
2021/09/25 09:52:02;;;;;;;4.45;3.90;;;;;;;;;;10427435;28;20033;-86
2021/09/25 09:57:09;;;;;;;4.97;3.45;;;;;;;;;;10430509;28;20029;-86
2021/09/25 10:02:11;;;;;;;3.40;2.88;;;;;;;;;;10428892;28;20057;-85
2021/09/25 10:07:12;;;;;;;4.70;3.38;;;;;;;;;;10430760;28;20028;-86
2021/09/25 10:12:18;;;;;;;5.22;3.20;;;;;;;;;;10427337;28;20085;-86
2021/09/25 10:17:22;;;;;;;4.70;3.40;;;;;;;;;;10430378;28;20025;-87
2021/09/25 10:22:28;;;;;;;4.18;3.25;;;;;;;;;;10429214;28;20022;-87
2021/09/25 10:27:32;;;;;;;5.70;2.78;;;;;;;;;;10433584;28;20029;-87
2021/09/25 10:32:51;;;;;;;5.00;2.92;;;;;;;;;;10438727;28;20034;-86
2021/09/25 10:37:57;;;;;;;4.10;2.90;;;;;;;;;;10427508;28;20026;-86
2021/09/25 10:43:00;;;;;;;4.05;3.03;;;;;;;;;;10437307;28;20030;-87
2021/09/25 10:48:26;;;;;;;4.28;2.70;;;;;;;;;;10436377;28;20479;-87
2021/09/25 10:53:36;;;;;;;3.72;3.13;;;;;;;;;;10437032;28;20036;-86
2021/09/25 10:58:38;;;;;;;5.10;2.85;;;;;;;;;;10431953;28;20041;-86
2021/09/25 11:09:07;;;;;;;4.88;3.78;;;;;;;;;;10453140;28;20044;-87
2021/09/25 11:14:12;;;;;;;4.35;3.13;;;;;;;;;;10434297;28;20030;-87
2021/09/25 11:19:47;;;;;;;4.22;3.13;;;;;;;;;;10433694;28;20447;-87
2021/09/25 11:25:09;;;;;;;5.05;3.20;;;;;;;;;;10431644;28;20029;-87
2021/09/25 11:30:23;;;;;;;6.28;3.70;;;;;;;;;;10428575;28;20025;-87
2021/09/25 11:35:33;;;;;;;4.40;3.47;;;;;;;;;;10428711;28;20037;-86
2021/09/25 11:40:50;;;;;;;5.13;3.55;;;;;;;;;;10431224;28;20060;-87
2021/09/25 11:45:52;;;;;;;5.30;3.25;;;;;;;;;;10426107;28;20033;-84
2021/09/25 11:50:55;;;;;;;7.72;4.22;;;;;;;;;;10428419;28;20031;-85
2021/09/25 12:07:42;;;;;;;4.15;3.13;;;;;;;;;;10433263;28;20029;-88
2021/09/25 12:13:15;;;;;;;5.68;3.70;;;;;;;;;;10424547;28;20112;-88
2021/09/25 14:57:06;;;;;;;5.50;4.37;;;;;;;;;;10424804;28;20056;-90
2021/09/25 15:02:08;;;;;;;4.43;3.97;;;;;;;;;;10425667;28;20057;-90
2021/09/25 15:07:09;;;;;;;6.05;4.05;;;;;;;;;;10424785;28;20025;-89
2021/09/25 15:12:14;;;;;;;6.40;4.25;;;;;;;;;;10424911;28;20116;-88
2021/09/25 15:17:15;;;;;;;6.18;4.57;;;;;;;;;;10438176;28;20071;-89
2021/09/25 15:22:17;;;;;;;5.53;4.47;;;;;;;;;;10427240;28;20057;-89
2021/09/25 15:27:18;;;;;;;6.70;4.55;;;;;;;;;;10428964;28;20033;-90
2021/09/25 15:32:19;;;;;;;5.25;3.70;;;;;;;;;;10429421;28;20175;-91
2021/09/25 15:37:21;;;;;;;5.15;3.70;;;;;;;;;;10429928;28;20029;-89
2021/09/25 15:42:22;;;;;;;4.72;3.30;;;;;;;;;;10430224;28;20033;-89
2021/09/25 15:47:25;;;;;;;6.55;3.70;;;;;;;;;;10435646;28;20064;-89
2021/09/25 15:52:26;;;;;;;6.32;4.22;;;;;;;;;;10462001;28;20048;-89
2021/09/25 15:57:27;;;;;;;3.97;3.35;;;;;;;;;;10426794;28;20056;-89
2021/09/25 16:02:28;;;;;;;4.75;3.45;;;;;;;;;;10440648;28;20029;-89
2021/09/25 16:07:32;;;;;;;3.88;3.33;;;;;;;;;;10434018;28;20030;-89
2021/09/25 16:12:33;;;;;;;6.47;4.32;;;;;;;;;;10427028;28;20022;-89
2021/09/25 16:17:35;;;;;;;4.90;3.35;;;;;;;;;;10428323;28;20025;-89
2021/09/25 16:22:36;;;;;;;4.55;3.65;;;;;;;;;;10430973;28;20107;-89
2021/09/25 16:27:37;;;;;;;4.18;3.17;;;;;;;;;;10429173;28;20021;-89
2021/09/25 16:32:39;;;;;;;5.15;3.95;;;;;;;;;;10426490;28;20030;-89
2021/09/25 16:37:39;;;;;;;7.28;5.57;;;;;;;;;;10426919;28;20100;-89
2021/09/25 16:42:40;;;;;;;4.10;3.60;;;;;;;;;;10426883;28;20026;-89
2021/09/25 16:47:41;;;;;;;3.58;3.20;;;;;;;;;;10420813;28;20038;-89
2021/09/25 16:52:42;;;;;;;4.07;3.65;;;;;;;;;;10425530;28;20021;-89
2021/09/25 16:57:43;;;;;;;4.45;3.45;;;;;;;;;;10435720;28;20025;-89
2021/09/25 17:02:44;;;;;;;3.80;3.40;;;;;;;;;;10435289;28;20083;-89
2021/09/25 17:07:45;;;;;;;4.00;3.60;;;;;;;;;;10442808;28;20040;-89
2021/09/25 17:12:48;;;;;;;4.75;3.60;;;;;;;;;;10426451;28;20087;-90
2021/09/25 17:17:49;;;;;;;11.75;5.55;;;;;;;;;;10426448;28;20025;-89
2021/09/25 17:22:50;;;;;;;18.23;7.55;;;;;;;;;;10437453;28;20025;-89
2021/09/25 17:27:51;;;;;;;30.42;10.45;;;;;;;;;;10424445;28;20027;-89
2021/09/25 17:32:52;;;;;;;35.45;12.07;;;;;;;;;;10423180;28;20060;-90
2021/09/25 17:37:53;;;;;;;38.97;15.18;;;;;;;;;;10421409;28;20476;-90
2021/09/25 17:42:55;;;;;;;32.10;12.18;;;;;;;;;;10422551;28;20491;-90
2021/09/25 17:47:57;;;;;;;46.17;17.35;;;;;;;;;;10446338;28;20029;-89
2021/09/25 17:52:58;;;;;;;35.33;14.77;;;;;;;;;;10452422;28;20045;-90
2021/09/25 17:57:59;;;;;;;31.33;15.23;;;;;;;;;;10425013;28;20061;-90
2021/09/25 18:03:00;;;;;;;33.42;14.18;;;;;;;;;;10423242;28;20047;-90
2021/09/25 18:08:01;;;;;;;36.17;15.38;;;;;;;;;;10423168;28;20171;-90
2021/09/25 18:13:02;;;;;;;28.88;13.93;;;;;;;;;;10421028;28;20029;-89
2021/09/25 18:18:04;;;;;;;32.10;14.45;;;;;;;;;;10419800;28;20057;-88
2021/09/25 18:23:05;;;;;;;26.08;12.93;;;;;;;;;;10421629;28;20038;-89
2021/09/25 18:28:06;;;;;;;28.88;14.00;;;;;;;;;;10423021;28;20038;-89
2021/09/25 18:33:07;;;;;;;20.80;11.32;;;;;;;;;;10419415;28;20566;-89
2021/09/25 18:38:09;;;;;;;21.02;11.95;;;;;;;;;;10418047;28;20129;-88
2021/09/25 18:43:10;;;;;;;24.50;12.07;;;;;;;;;;10417683;28;20468;-88
2021/09/25 18:48:11;;;;;;;17.40;10.02;;;;;;;;;;10418540;28;20117;-88
2021/09/25 18:53:12;;;;;;;22.30;12.02;;;;;;;;;;10425098;28;20492;-88
2021/09/25 18:58:15;;;;;;;16.40;11.05;;;;;;;;;;10425769;28;20021;-88
2021/09/25 19:03:16;;;;;;;21.52;11.25;;;;;;;;;;10426114;28;20064;-88
2021/09/25 19:08:17;;;;;;;16.63;10.45;;;;;;;;;;10428862;28;20525;-89
2021/09/25 19:13:20;;;;;;;16.48;9.85;;;;;;;;;;10426207;28;20471;-89
2021/09/25 19:18:21;;;;;;;12.85;8.88;;;;;;;;;;10424717;28;20108;-88
2021/09/25 19:23:22;;;;;;;15.35;9.50;;;;;;;;;;10424282;28;20022;-88
2021/09/25 19:28:23;;;;;;;13.40;9.02;;;;;;;;;;10423807;28;20037;-89
2021/09/25 19:33:24;;;;;;;14.80;9.98;;;;;;;;;;10425184;28;20120;-88
2021/09/25 19:38:25;;;;;;;12.95;9.30;;;;;;;;;;10424636;28;20026;-89
2021/09/25 19:43:26;;;;;;;11.80;8.27;;;;;;;;;;10421895;28;20165;-88
2021/09/25 19:48:27;;;;;;;11.23;7.88;;;;;;;;;;10423782;28;20545;-89
2021/09/25 19:53:28;;;;;;;12.73;8.40;;;;;;;;;;10427618;28;20120;-88
2021/09/25 19:58:29;;;;;;;11.68;8.25;;;;;;;;;;10424058;28;20083;-89
2021/09/25 20:03:30;;;;;;;10.77;8.13;;;;;;;;;;10425449;28;20113;-89
2021/09/25 20:08:31;;;;;;;11.13;8.40;;;;;;;;;;10423640;28;20022;-89
2021/09/25 20:13:33;;;;;;;9.90;8.23;;;;;;;;;;10422928;28;20022;-89
2021/09/25 20:18:36;;;;;;;8.85;7.25;;;;;;;;;;10421529;28;20089;-89
2021/09/25 20:23:37;;;;;;;9.70;8.20;;;;;;;;;;10421118;28;20392;-89
2021/09/25 20:28:38;;;;;;;11.02;8.52;;;;;;;;;;10419638;28;20113;-89
2021/09/25 20:33:39;;;;;;;8.95;7.00;;;;;;;;;;10422204;28;20032;-89
2021/09/25 20:38:40;;;;;;;9.45;7.70;;;;;;;;;;10422407;28;20057;-89
2021/09/25 20:43:42;;;;;;;8.68;7.03;;;;;;;;;;10419476;28;20057;-89
2021/09/25 20:48:43;;;;;;;10.20;8.10;;;;;;;;;;10420288;28;20041;-89
2021/09/25 20:53:44;;;;;;;9.43;7.25;;;;;;;;;;10420034;28;20022;-88
2021/09/25 20:58:45;;;;;;;8.32;7.47;;;;;;;;;;10424657;28;20095;-89
2021/09/25 21:03:46;;;;;;;7.75;6.68;;;;;;;;;;10422668;28;20021;-88
2021/09/25 21:08:49;;;;;;;8.65;7.50;;;;;;;;;;10419721;28;20025;-88
2021/09/25 21:13:50;;;;;;;8.23;7.10;;;;;;;;;;10420426;28;20026;-88
2021/09/25 21:18:52;;;;;;;9.00;7.75;;;;;;;;;;10421112;28;20554;-89
2021/09/25 21:23:53;;;;;;;11.45;9.63;;;;;;;;;;10422205;28;20025;-89
2021/09/25 21:28:54;;;;;;;7.85;7.05;;;;;;;;;;10424414;28;20025;-89
2021/09/25 21:33:56;;;;;;;9.60;8.55;;;;;;;;;;10423576;28;20043;-88
2021/09/25 21:38:57;;;;;;;9.15;7.93;;;;;;;;;;10423752;28;20079;-88
2021/09/25 21:43:58;;;;;;;7.30;6.60;;;;;;;;;;10418307;28;20368;-89
2021/09/25 21:48:59;;;;;;;8.52;7.60;;;;;;;;;;10419183;28;20033;-88
2021/09/25 21:54:01;;;;;;;8.80;7.03;;;;;;;;;;10421064;28;20032;-88
2021/09/25 21:59:02;;;;;;;8.60;7.78;;;;;;;;;;10453677;28;20017;-88
2021/09/25 22:04:04;;;;;;;8.32;7.18;;;;;;;;;;10436091;28;20025;-89
2021/09/25 22:09:06;;;;;;;8.02;7.13;;;;;;;;;;10424232;28;20041;-88
2021/09/25 22:14:08;;;;;;;8.15;6.68;;;;;;;;;;10417954;28;20018;-88
2021/09/25 22:19:11;;;;;;;8.52;7.63;;;;;;;;;;10417107;28;20076;-89
2021/09/25 22:24:12;;;;;;;7.45;6.70;;;;;;;;;;10422066;28;20057;-88
2021/09/25 22:29:13;;;;;;;8.98;8.07;;;;;;;;;;10429362;28;20032;-89
2021/09/25 22:34:14;;;;;;;8.70;7.63;;;;;;;;;;10428746;28;20022;-88
2021/09/25 22:39:15;;;;;;;8.98;7.82;;;;;;;;;;10446033;28;20033;-88
2021/09/25 22:44:16;;;;;;;9.68;7.82;;;;;;;;;;10426932;28;20022;-88
2021/09/25 22:49:17;;;;;;;8.70;7.72;;;;;;;;;;10431771;28;20033;-88
2021/09/25 22:54:18;;;;;;;9.93;7.75;;;;;;;;;;10429571;28;20029;-89
2021/09/25 22:59:19;;;;;;;8.68;7.78;;;;;;;;;;10432444;28;20112;-89
2021/09/25 23:04:20;;;;;;;9.23;7.82;;;;;;;;;;10438902;28;20068;-89
2021/09/25 23:09:20;;;;;;;7.32;6.60;;;;;;;;;;10425602;28;20083;-88
2021/09/25 23:14:21;;;;;;;8.52;7.10;;;;;;;;;;10422434;28;20053;-89
2021/09/25 23:19:22;;;;;;;7.47;6.68;;;;;;;;;;10422144;28;20029;-88
2021/09/25 23:24:23;;;;;;;9.55;8.55;;;;;;;;;;10422529;28;20025;-89
2021/09/25 23:29:25;;;;;;;10.45;8.23;;;;;;;;;;10423821;28;20036;-89
2021/09/25 23:34:28;;;;;;;10.30;8.65;;;;;;;;;;10423800;28;20057;-89
2021/09/25 23:39:30;;;;;;;7.85;7.05;;;;;;;;;;10422247;28;20029;-89
2021/09/25 23:44:31;;;;;;;10.73;8.90;;;;;;;;;;10461088;28;20029;-88
2021/09/25 23:49:34;;;;;;;8.98;7.38;;;;;;;;;;10428926;28;20040;-88
2021/09/25 23:54:35;;;;;;;8.00;7.20;;;;;;;;;;10422963;28;20022;-89
2021/09/25 23:59:36;;;;;;;10.07;7.75;;;;;;;;;;10423192;28;20083;-89
